Flight Track Log - Related Links

Times and Time Zones

All times are in EST time to prevent confusion due to time zone crossing. See the CXA882 flight status page for this flight to view local times or setup timezone preferences in your user account.

Time Position Orientation Groundspeed Altitude Reporting Facility
EST Latitude Longitude Course Direction KTS MPH feet Rate Location/Type
Sun 07:51:52 AM 24.8599 121.5411 212° Southwest 253 291 13,400  Level FlightAware ADS-B
Sun 07:52:34 AM 24.8151 121.5112 211° Southwest 288 331 14,500 2,049 Climbing FlightAware ADS-B
Sun 07:53:14 AM 24.7683 121.4799 211° Southwest 298 343 16,200 2,550 Climbing FlightAware ADS-B
Sun 07:53:54 AM 24.7247 121.4502 212° Southwest 303 349 17,900 2,506 Climbing FlightAware ADS-B
Sun 07:54:33 AM 24.6745 121.4162 212° Southwest 309 356 19,500 2,548 Climbing FlightAware ADS-B
Sun 07:55:07 AM 24.6327 121.3883 211° Southwest 309 356 21,000 2,338 Climbing FlightAware ADS-B
Sun 07:55:50 AM 24.5962 121.3636 212° Southwest 321 369 22,500 1,975 Climbing FlightAware ADS-B
Sun 07:56:26 AM 24.5320 121.3203 212° Southwest 333 383 23,600 1,663 Climbing FlightAware ADS-B
Sun 07:57:13 AM 24.4745 121.2818 211° Southwest 340 391 24,800 1,685 Climbing FlightAware ADS-B
Sun 07:57:55 AM 24.4128 121.2400 212° Southwest 338 389 26,100 1,869 Climbing FlightAware ADS-B
Sun 07:58:14 AM 24.3928 121.2194 223° Southwest 317 365 26,700 1,650 Climbing FlightAware ADS-B
Sun 07:58:35 AM 24.3767 121.1914 238° Southwest 307 353 27,200 800 Climbing FlightAware ADS-B
Sun 07:59:14 AM 24.3490 121.1353 242° Southwest 334 384 27,500 380 Climbing FlightAware ADS-B
Sun 07:59:54 AM 24.3183 121.0735 241° Southwest 358 412 27,700 375 Climbing FlightAware ADS-B
Sun 08:00:34 AM 24.2857 121.0080 241° Southwest 371 427 28,000 228 Climbing FlightAware ADS-B
Sun 08:01:13 AM 24.2533 120.9430 241° Southwest 374 430 28,000  Level FlightAware ADS-B
Sun 08:01:55 AM 24.2191 120.8742 241° Southwest 374 430 28,000  Level FlightAware ADS-B
Sun 08:02:35 AM 24.1898 120.8149 242° Southwest 374 430 28,000  Level FlightAware ADS-B
Sun 08:03:14 AM 24.1572 120.7494 241° Southwest 375 432 28,000  Level FlightAware ADS-B
Sun 08:05:00 AM 24.1699 120.6681 280° West  Level Estimated
Sun 08:06:00 AM 24.1771 120.6221 280° West  Level Estimated
Sun 08:07:00 AM 24.1842 120.5761 280° West  Level Estimated
Sun 08:08:00 AM 24.1914 120.5300 280° West  Level Estimated
Sun 08:09:00 AM 24.1985 120.4840 280° West  Level Estimated
Sun 08:10:00 AM 24.2057 120.4380 280° West  Level Estimated
Sun 08:11:00 AM 24.2127 120.3919 280° West  Level Estimated
Sun 08:12:00 AM 24.2198 120.3459 280° West  Level Estimated
Sun 08:13:00 AM 24.2269 120.2998 280° West  Level Estimated
Sun 08:14:00 AM 24.2340 120.2538 280° West  Level Estimated
Sun 08:15:00 AM 24.2410 120.2077 280° West  Level Estimated
Sun 08:16:00 AM 24.2481 120.1616 280° West  Level Estimated
Sun 08:17:00 AM 24.2551 120.1156 279° West  Level Estimated
Sun 08:18:00 AM 24.2621 120.0695 279° West  Level Estimated
Sun 08:19:00 AM 24.2691 120.0234 279° West  Level Estimated
Sun 08:20:00 AM 24.2761 119.9773 279° West  Level Estimated
Sun 08:21:00 AM 24.2830 119.9312 279° West  Level Estimated
Sun 08:22:00 AM 24.2900 119.8851 279° West  Level Estimated
Sun 08:23:00 AM 24.2969 119.8390 279° West  Level Estimated
Sun 08:24:00 AM 24.3038 119.7929 279° West  Level Estimated
Sun 08:25:00 AM 24.3107 119.7468 279° West  Level Estimated
Sun 08:26:00 AM 24.3176 119.7006 279° West  Level Estimated
Sun 08:27:00 AM 24.3245 119.6545 279° West  Level Estimated
Sun 08:28:00 AM 24.3314 119.6084 279° West  Level Estimated
Sun 08:29:00 AM 24.3382 119.5622 279° West  Level Estimated
Sun 08:30:00 AM 24.3451 119.5161 279° West  Level Estimated
Sun 08:31:00 AM 24.3519 119.4699 279° West  Level Estimated
Sun 08:32:00 AM 24.3587 119.4238 279° West  Level Estimated
Sun 08:33:00 AM 24.3655 119.3776 279° West  Level Estimated
Sun 08:34:00 AM 24.3723 119.3315 279° West  Level Estimated
Sun 08:35:00 AM 24.3791 119.2853 279° West  Level Estimated
Sun 08:36:00 AM 24.3858 119.2391 279° West  Level Estimated
Sun 08:37:00 AM 24.3926 119.1930 279° West  Level Estimated
Sun 08:38:00 AM 24.3993 119.1468 279° West  Level Estimated
Sun 08:39:00 AM 24.4060 119.1006 279° West  Level Estimated
Sun 08:40:00 AM 24.4127 119.0544 279° West  Level Estimated
Sun 08:41:00 AM 24.4194 119.0082 279° West  Level Estimated
Sun 08:42:00 AM 24.4261 118.9620 279° West  Level Estimated
Sun 08:43:00 AM 24.4327 118.9158 279° West  Level Estimated
Sun 08:44:00 AM 24.4394 118.8696 279° West  Level Estimated
Sun 08:45:00 AM 24.4460 118.8234 279° West  Level Estimated
Sun 08:46:00 AM 24.4526 118.7772 279° West  Level Estimated
Sun 08:47:00 AM 24.4592 118.7310 279° West  Level Estimated
Sun 08:48:00 AM 24.4658 118.6847 279° West  Level Estimated
Sun 08:49:00 AM 24.4724 118.6385 279° West  Level Estimated
Sun 08:50:00 AM 24.4790 118.5923 279° West  Level Estimated
Sun 08:51:00 AM 24.4855 118.5460 279° West  Level Estimated
Sun 08:52:00 AM 24.4920 118.4998 279° West  Level Estimated
Sun 08:53:00 AM 24.4986 118.4535 279° West  Level Estimated
Sun 08:54:00 AM 24.5051 118.4073 279° West  Level Estimated
Sun 08:55:00 AM 24.5115 118.3610 279° West  Level Estimated
Sun 08:56:00 AM 24.5180 118.3147 279° West  Level Estimated
Sun 08:57:00 AM 24.5245 118.2685 279° West  Level Estimated
Sun 08:58:00 AM 24.5309 118.2222 279° West  Level Estimated
Sun 08:59:00 AM 24.5374 118.1759 279° West  Level Estimated
Sun 09:00:00 AM 24.5438 118.1296 279° West  Level Estimated
Sun 09:01:00 AM 24.5440 118.1277 279° West  Level Estimated
Sun 09:02:00 AM 24.5440 118.1277 193° South  Level Estimated
Sun 09:03:00 AM 24.5440 118.1277 193° South  Level Estimated
Sun 09:04:00 AM 24.5440 118.1277 193° South  Level Estimated
Sun 09:05:00 AM 24.5440 118.1277 193° South  Level Estimated
Sun 09:06:00 AM 24.5440 118.1277 193° South  Level Estimated
Sun 09:07:00 AM 24.5440 118.1277 193° South  Level Estimated
Sun 09:08:00 AM 24.5440 118.1277 193° South  Level Estimated

Login

Don't have an account? Register now (free) for customized features, flight alerts, and more!